createdAt,value
2022-12-22T00:01:56.864Z,5.22
2022-12-22T00:04:42.431Z,5.65
2022-12-22T00:07:27.913Z,5.40
2022-12-22T00:10:13.399Z,4.13
2022-12-22T00:12:58.822Z,6.03
2022-12-22T00:15:45.293Z,4.35
2022-12-22T00:18:34.037Z,5.72
2022-12-22T00:21:19.513Z,4.10
2022-12-22T00:24:04.905Z,4.30
2022-12-22T00:26:52.656Z,4.80
2022-12-22T00:29:38.173Z,3.67
2022-12-22T00:32:32.668Z,4.40
2022-12-22T00:35:18.679Z,4.28
2022-12-22T00:38:03.986Z,4.10
2022-12-22T00:40:49.414Z,3.70
2022-12-22T00:43:34.801Z,5.13
2022-12-22T00:46:22.362Z,4.68
2022-12-22T00:49:09.394Z,3.17
2022-12-22T00:51:54.776Z,3.50
2022-12-22T00:54:41.060Z,4.28
2022-12-22T00:57:37.997Z,3.60
2022-12-22T01:00:24.951Z,3.35
2022-12-22T01:03:10.397Z,2.85
2022-12-22T01:05:55.726Z,3.30
2022-12-22T01:08:41.152Z,3.67
2022-12-22T01:11:26.753Z,3.08
2022-12-22T01:14:12.092Z,2.58
2022-12-22T01:16:57.694Z,4.70
2022-12-22T01:19:43.001Z,4.07
2022-12-22T01:22:33.867Z,3.90
2022-12-22T01:25:19.274Z,2.42
2022-12-22T01:28:04.522Z,3.67
2022-12-22T01:30:50.060Z,3.65
2022-12-22T01:33:35.447Z,3.22
2022-12-22T01:36:20.766Z,3.47
2022-12-22T01:39:06.153Z,3.80
2022-12-22T01:41:51.607Z,3.65
2022-12-22T01:44:36.954Z,4.82
2022-12-22T01:48:00.837Z,3.65
2022-12-22T01:50:52.390Z,3.42
2022-12-22T01:53:43.030Z,4.95
2022-12-22T01:56:28.945Z,4.68
2022-12-22T01:59:17.830Z,3.35
2022-12-22T02:02:04.022Z,4.28
2022-12-22T02:04:55.206Z,4.72
2022-12-22T02:07:58.112Z,3.25
2022-12-22T02:13:55.731Z,4.88
2022-12-22T02:17:08.987Z,3.75
2022-12-22T02:20:19.880Z,4.68
2022-12-22T02:23:26.372Z,3.40
2022-12-22T02:26:25.054Z,3.80
2022-12-22T02:29:10.976Z,3.10
2022-12-22T02:31:57.571Z,4.53
2022-12-22T02:34:42.962Z,4.30
2022-12-22T02:38:05.361Z,3.95
2022-12-22T02:40:57.410Z,5.33
2022-12-22T02:43:52.769Z,5.10
2022-12-22T02:46:47.554Z,3.78
2022-12-22T02:49:49.059Z,4.32
2022-12-22T02:52:40.551Z,4.75
2022-12-22T02:55:26.911Z,5.72
2022-12-22T02:58:12.315Z,5.35
2022-12-22T03:00:58.535Z,4.97
2022-12-22T03:03:43.933Z,4.68
2022-12-22T03:06:29.155Z,4.32
2022-12-22T03:09:14.478Z,5.22
2022-12-22T03:11:59.735Z,3.50
2022-12-22T03:14:45.052Z,3.92
2022-12-22T03:17:30.450Z,4.43
2022-12-22T03:20:15.791Z,4.45
2022-12-22T03:23:01.359Z,6.57
2022-12-22T03:25:46.694Z,4.78
2022-12-22T03:28:13.348Z,4.20
2022-12-22T03:30:39.968Z,5.28
2022-12-22T03:33:06.610Z,3.83
2022-12-22T03:35:33.471Z,4.30
2022-12-22T03:38:03.469Z,5.13
2022-12-22T03:40:33.394Z,4.18
2022-12-22T03:43:18.774Z,4.70
2022-12-22T03:46:04.156Z,5.50
2022-12-22T03:48:30.828Z,5.32
2022-12-22T03:50:57.375Z,6.03
2022-12-22T03:53:23.926Z,5.88
2022-12-22T03:55:50.468Z,4.70
2022-12-22T03:58:17.130Z,5.00
2022-12-22T04:00:43.778Z,4.22
2022-12-22T04:03:10.499Z,7.63
2022-12-22T04:05:37.142Z,5.45
2022-12-22T04:08:03.847Z,5.75
2022-12-22T04:10:49.275Z,5.15
2022-12-22T04:13:15.838Z,5.45
2022-12-22T04:15:42.390Z,5.72
2022-12-22T04:18:08.994Z,5.97
2022-12-22T04:20:35.590Z,5.90
2022-12-22T04:23:02.298Z,5.95
2022-12-22T04:25:29.553Z,4.72
2022-12-22T04:27:56.167Z,5.72
2022-12-22T04:30:22.895Z,5.80
2022-12-22T04:32:49.485Z,6.63
2022-12-22T04:35:16.081Z,6.28
2022-12-22T04:37:42.653Z,5.78
2022-12-22T04:40:09.499Z,7.03
2022-12-22T04:42:36.126Z,6.97
2022-12-22T04:45:02.919Z,7.03
2022-12-22T04:47:29.490Z,6.88
2022-12-22T04:49:56.094Z,7.32
2022-12-22T04:52:23.134Z,6.40
2022-12-22T04:54:49.802Z,7.45
2022-12-22T04:57:16.459Z,6.80
2022-12-22T04:59:43.050Z,6.28
2022-12-22T05:02:09.708Z,7.22
2022-12-22T05:04:36.401Z,7.20
2022-12-22T05:07:03.190Z,7.28
2022-12-22T05:09:29.737Z,6.78
2022-12-22T05:11:56.427Z,5.70
2022-12-22T05:14:22.999Z,5.93
2022-12-22T05:16:49.634Z,6.35
2022-12-22T05:19:16.469Z,6.43
2022-12-22T05:21:43.032Z,8.02
2022-12-22T05:24:09.587Z,7.20
2022-12-22T05:26:36.144Z,8.25
2022-12-22T05:29:02.749Z,6.82
2022-12-22T05:31:29.370Z,6.10
2022-12-22T05:33:56.198Z,6.20
2022-12-22T05:36:22.756Z,6.93
2022-12-22T05:38:49.382Z,6.18
2022-12-22T05:41:15.923Z,6.68
2022-12-22T05:43:42.611Z,6.57
2022-12-22T05:46:11.529Z,7.38
2022-12-22T05:48:40.011Z,6.65
2022-12-22T05:51:08.691Z,5.75
2022-12-22T05:53:35.665Z,7.10
2022-12-22T05:56:02.539Z,6.90
2022-12-22T05:58:29.175Z,6.82
2022-12-22T06:00:59.758Z,8.15
2022-12-22T06:03:27.689Z,6.22
2022-12-22T06:05:55.071Z,6.22
2022-12-22T06:08:22.127Z,9.13
2022-12-22T06:10:48.909Z,8.35
2022-12-22T06:13:15.618Z,8.77
2022-12-22T06:15:42.288Z,7.65
2022-12-22T06:18:08.897Z,8.52
2022-12-22T06:20:35.585Z,8.57
2022-12-22T06:23:02.203Z,7.30
2022-12-22T06:25:28.810Z,9.32
2022-12-22T06:27:55.344Z,8.10
2022-12-22T06:30:27.377Z,8.13
2022-12-22T06:32:57.809Z,9.52
2022-12-22T06:35:24.371Z,7.88
2022-12-22T06:37:50.979Z,8.52
2022-12-22T06:40:17.599Z,10.98
2022-12-22T06:43:08.351Z,10.60
2022-12-22T06:45:44.366Z,11.43
2022-12-22T06:48:12.519Z,10.27
2022-12-22T06:50:39.523Z,8.57
2022-12-22T06:53:06.683Z,8.50
2022-12-22T06:55:33.299Z,10.27
2022-12-22T06:58:00.057Z,9.55
2022-12-22T07:00:26.712Z,10.45
2022-12-22T07:02:53.644Z,10.35
2022-12-22T07:05:20.511Z,9.90
2022-12-22T07:07:47.340Z,9.52
2022-12-22T07:10:14.034Z,12.13
2022-12-22T07:12:40.994Z,8.90
2022-12-22T07:15:08.719Z,11.23
2022-12-22T07:17:35.832Z,8.48
2022-12-22T07:20:02.622Z,8.88
2022-12-22T07:22:30.740Z,9.70
2022-12-22T07:24:58.022Z,8.48
2022-12-22T07:27:24.583Z,10.85
2022-12-22T07:29:51.153Z,7.68
2022-12-22T07:32:17.935Z,8.35
2022-12-22T07:34:44.530Z,7.97
2022-12-22T07:37:13.492Z,7.35
2022-12-22T07:39:40.106Z,9.40
2022-12-22T07:42:25.349Z,7.85
2022-12-22T07:44:51.938Z,7.88
2022-12-22T07:47:18.511Z,8.25
2022-12-22T07:50:03.559Z,10.02
2022-12-22T07:52:30.152Z,11.85
2022-12-22T07:54:56.724Z,12.10
2022-12-22T07:57:26.060Z,9.55
2022-12-22T07:59:53.415Z,9.57
2022-12-22T08:02:20.117Z,8.60
2022-12-22T08:04:46.853Z,8.65
2022-12-22T08:07:13.584Z,10.23
2022-12-22T08:09:40.205Z,8.73
2022-12-22T08:12:06.937Z,8.95
2022-12-22T08:14:33.570Z,9.73
2022-12-22T08:17:00.202Z,9.25
2022-12-22T08:19:26.908Z,9.02
2022-12-22T08:21:53.677Z,9.18
2022-12-22T08:24:21.109Z,10.07
2022-12-22T08:26:51.666Z,11.85
2022-12-22T08:29:25.134Z,10.88
2022-12-22T08:31:52.120Z,8.93
2022-12-22T08:34:18.841Z,10.00
2022-12-22T08:36:50.319Z,9.90
2022-12-22T08:39:18.561Z,10.27
2022-12-22T08:41:51.013Z,9.27
2022-12-22T08:44:29.075Z,9.07
2022-12-22T08:46:57.815Z,12.40
2022-12-22T08:49:25.521Z,23.48
2022-12-22T08:51:53.073Z,18.63
2022-12-22T08:54:20.486Z,14.00
2022-12-22T08:56:47.311Z,13.85
2022-12-22T08:59:14.095Z,12.60
2022-12-22T09:01:44.241Z,12.00
2022-12-22T09:04:13.499Z,11.82
2022-12-22T09:06:41.339Z,18.70
2022-12-22T09:09:10.521Z,23.17
2022-12-22T09:11:37.939Z,19.27
2022-12-22T09:14:04.654Z,12.85
2022-12-22T09:16:33.007Z,11.88
2022-12-22T09:19:00.733Z,13.57
2022-12-22T09:21:27.938Z,11.45
2022-12-22T09:23:56.044Z,10.95
2022-12-22T09:26:24.694Z,12.35
2022-12-22T09:28:52.087Z,12.88
2022-12-22T09:31:20.464Z,12.95
2022-12-22T09:33:47.563Z,12.85
2022-12-22T09:36:17.540Z,13.25
2022-12-22T09:38:44.622Z,9.82
2022-12-22T09:41:21.151Z,13.65
2022-12-22T09:43:47.915Z,12.57
2022-12-22T09:46:22.512Z,13.02
2022-12-22T09:48:49.874Z,11.90
2022-12-22T09:51:22.728Z,11.48
2022-12-22T09:53:57.122Z,11.65
2022-12-22T09:56:25.271Z,12.15
2022-12-22T09:58:51.838Z,10.27
2022-12-22T10:02:00.777Z,12.52
2022-12-22T10:04:53.543Z,13.02
2022-12-22T10:07:38.320Z,13.30
2022-12-22T10:10:24.698Z,12.32
2022-12-22T10:12:53.535Z,10.63
2022-12-22T10:15:22.008Z,12.30
2022-12-22T10:17:54.171Z,12.93
2022-12-22T10:20:28.145Z,12.52
2022-12-22T10:22:58.983Z,11.13
2022-12-22T10:28:30.341Z,15.85
2022-12-22T10:31:24.972Z,13.55
2022-12-22T10:33:55.322Z,13.02
2022-12-22T10:36:27.920Z,15.73
2022-12-22T10:39:06.297Z,18.73
2022-12-22T10:41:46.547Z,12.77
2022-12-22T10:44:15.863Z,14.70
2022-12-22T10:46:49.461Z,14.13
2022-12-22T10:52:32.416Z,11.20
2022-12-22T10:55:23.448Z,13.95
2022-12-22T10:57:50.552Z,13.38
2022-12-22T11:00:23.281Z,12.30
2022-12-22T11:02:56.354Z,14.52
2022-12-22T11:05:23.353Z,14.68
2022-12-22T11:07:50.256Z,16.00
2022-12-22T11:10:31.390Z,16.05
2022-12-22T11:13:21.209Z,14.95
2022-12-22T11:16:25.731Z,17.25
2022-12-22T11:18:55.049Z,17.77
2022-12-22T11:21:40.003Z,15.82
2022-12-22T11:24:21.438Z,16.30
2022-12-22T11:26:51.128Z,18.20
2022-12-22T11:29:20.647Z,18.40
2022-12-22T11:32:19.136Z,21.20
2022-12-22T11:35:27.466Z,18.83
2022-12-22T11:38:19.250Z,13.18
2022-12-22T11:40:51.003Z,18.30
2022-12-22T11:43:46.096Z,17.63
2022-12-22T11:46:41.634Z,18.45
2022-12-22T11:49:29.451Z,18.23
2022-12-22T11:52:15.044Z,18.00
2022-12-22T11:55:04.182Z,20.80
2022-12-22T11:57:44.139Z,18.75
2022-12-22T12:00:16.475Z,19.85
2022-12-22T12:06:09.411Z,19.08
2022-12-22T12:08:57.729Z,22.33
2022-12-22T12:11:27.271Z,21.40
2022-12-22T12:14:13.601Z,22.23
2022-12-22T12:17:24.698Z,22.75
2022-12-22T12:20:06.322Z,18.70
2022-12-22T12:22:58.134Z,21.37
2022-12-22T12:25:26.269Z,21.43
2022-12-22T12:28:36.234Z,22.25
2022-12-22T12:31:05.465Z,18.77
2022-12-22T12:33:49.276Z,19.35
2022-12-22T12:36:29.543Z,20.02
2022-12-22T12:39:09.618Z,18.25
2022-12-22T12:42:03.105Z,20.58
2022-12-22T12:44:34.302Z,18.75
2022-12-22T12:47:23.188Z,16.85
2022-12-22T12:50:06.680Z,18.65
2022-12-22T12:52:39.411Z,18.40
2022-12-22T12:55:34.174Z,19.00
2022-12-22T12:58:03.714Z,19.20
2022-12-22T13:00:33.756Z,17.42
2022-12-22T13:03:04.457Z,20.15
2022-12-22T13:05:33.014Z,19.42
2022-12-22T13:08:11.685Z,21.10
2022-12-22T13:10:48.657Z,19.13
2022-12-22T13:13:27.320Z,18.23
2022-12-22T13:16:00.390Z,20.77
2022-12-22T13:18:29.942Z,18.90
2022-12-22T13:21:26.292Z,18.00
2022-12-22T13:26:44.310Z,17.23
2022-12-22T13:29:26.360Z,14.77
2022-12-22T13:32:02.407Z,18.30
2022-12-22T13:34:31.813Z,18.55
2022-12-22T13:37:13.459Z,18.98
2022-12-22T13:39:40.098Z,18.83
2022-12-22T13:42:08.024Z,17.17
2022-12-22T13:44:35.301Z,17.35
2022-12-22T13:47:10.866Z,19.00
2022-12-22T13:52:27.353Z,15.63
2022-12-22T13:54:54.915Z,18.08
2022-12-22T13:57:22.934Z,19.83
2022-12-22T13:59:51.428Z,18.77
2022-12-22T14:02:21.342Z,18.45
2022-12-22T14:05:10.359Z,16.35
2022-12-22T14:07:37.086Z,15.65
2022-12-22T14:10:04.217Z,17.75
2022-12-22T14:12:36.478Z,14.02
2022-12-22T14:15:03.607Z,14.05
2022-12-22T14:17:34.365Z,16.65
2022-12-22T14:20:12.417Z,14.00
2022-12-22T14:22:44.847Z,14.05
2022-12-22T14:25:40.149Z,12.65
2022-12-22T14:28:16.747Z,13.13
2022-12-22T14:30:47.407Z,15.63
2022-12-22T14:33:28.543Z,11.93
2022-12-22T14:36:05.976Z,11.55
2022-12-22T14:38:40.746Z,12.05
2022-12-22T14:41:41.322Z,12.38
2022-12-22T14:44:18.071Z,12.00
2022-12-22T14:46:48.484Z,13.63
2022-12-22T14:49:17.910Z,11.95
2022-12-22T14:52:01.105Z,10.25
2022-12-22T14:54:28.649Z,12.55
2022-12-22T14:57:08.501Z,10.13
2022-12-22T14:59:39.900Z,10.10
2022-12-22T15:02:38.322Z,7.45
2022-12-22T15:05:13.821Z,9.57
2022-12-22T15:10:40.978Z,8.98
2022-12-22T15:13:37.935Z,9.60
2022-12-22T15:16:04.946Z,9.27
2022-12-22T15:18:32.785Z,9.63
2022-12-22T15:20:59.361Z,16.40
2022-12-22T15:23:25.937Z,16.85
2022-12-22T15:25:52.532Z,16.83
2022-12-22T15:28:19.113Z,23.27
2022-12-22T15:30:46.008Z,10.45
2022-12-22T15:33:16.289Z,9.07
2022-12-22T15:35:44.193Z,7.10
2022-12-22T15:38:16.075Z,8.95
2022-12-22T15:40:43.061Z,8.93
2022-12-22T15:43:28.923Z,9.15
2022-12-22T15:45:57.175Z,8.02
2022-12-22T15:48:28.260Z,9.88
2022-12-22T15:50:55.921Z,10.77
2022-12-22T15:53:23.005Z,10.95
2022-12-22T15:55:51.910Z,15.05
2022-12-22T15:58:23.955Z,15.85
2022-12-22T16:00:50.532Z,13.48
2022-12-22T16:03:17.246Z,14.95
2022-12-22T16:05:45.731Z,15.00
2022-12-22T16:08:22.569Z,16.27
2022-12-22T16:10:49.549Z,13.60
2022-12-22T16:13:17.002Z,13.52
2022-12-22T16:15:43.687Z,13.55
2022-12-22T16:18:11.678Z,13.25
2022-12-22T16:20:41.174Z,9.90
2022-12-22T16:23:15.960Z,11.38
2022-12-22T16:25:44.694Z,10.38
2022-12-22T16:28:18.583Z,10.90
2022-12-22T16:30:45.753Z,9.68
2022-12-22T16:33:13.449Z,13.07
2022-12-22T16:35:40.640Z,9.63
2022-12-22T16:38:09.701Z,10.45
2022-12-22T16:40:45.979Z,8.70
2022-12-22T16:46:16.443Z,8.27
2022-12-22T16:48:53.045Z,9.32
2022-12-22T16:51:37.130Z,8.02
2022-12-22T16:54:04.393Z,8.73
2022-12-22T16:56:31.806Z,10.52
2022-12-22T16:58:58.714Z,9.50
2022-12-22T17:01:48.555Z,10.55
2022-12-22T17:04:31.986Z,9.40
2022-12-22T17:07:00.460Z,12.55
2022-12-22T17:09:33.992Z,14.13
2022-12-22T17:12:01.236Z,17.83
2022-12-22T17:14:29.608Z,15.52
2022-12-22T17:16:56.304Z,14.68
2022-12-22T17:19:22.963Z,12.93
2022-12-22T17:21:50.621Z,11.68
2022-12-22T17:24:24.298Z,12.70
2022-12-22T17:26:54.491Z,11.20
2022-12-22T17:29:23.751Z,12.10
2022-12-22T17:31:50.909Z,13.43
2022-12-22T17:34:18.839Z,13.82
2022-12-22T17:36:47.463Z,11.85
2022-12-22T17:39:16.983Z,12.80
2022-12-22T17:41:44.057Z,13.68
2022-12-22T17:44:18.595Z,14.07
2022-12-22T17:46:45.561Z,13.35
2022-12-22T17:49:13.268Z,15.98
2022-12-22T17:51:41.705Z,14.60
2022-12-22T17:54:27.821Z,16.30
2022-12-22T17:57:03.626Z,13.48
2022-12-22T17:59:30.747Z,12.60
2022-12-22T18:01:57.522Z,14.13
2022-12-22T18:04:24.220Z,14.50
2022-12-22T18:06:50.856Z,14.65
2022-12-22T18:09:26.161Z,15.60
2022-12-22T18:11:53.552Z,14.40
2022-12-22T18:14:21.520Z,16.50
2022-12-22T18:16:48.186Z,15.48
2022-12-22T18:19:14.974Z,16.40
2022-12-22T18:21:41.607Z,15.68
2022-12-22T18:24:16.542Z,15.50
2022-12-22T18:26:43.618Z,18.27
2022-12-22T18:29:17.286Z,16.23
2022-12-22T18:31:44.209Z,15.93
2022-12-22T18:34:12.094Z,17.90
2022-12-22T18:36:40.035Z,17.48
2022-12-22T18:39:16.751Z,16.10
2022-12-22T18:41:43.999Z,16.55
2022-12-22T18:44:16.623Z,18.05
2022-12-22T18:46:43.497Z,16.77
2022-12-22T18:49:10.220Z,18.20
2022-12-22T18:51:36.905Z,18.05
2022-12-22T18:54:03.864Z,18.35
2022-12-22T18:56:30.471Z,18.08
2022-12-22T18:58:57.034Z,18.23
2022-12-22T19:01:26.039Z,18.70
2022-12-22T19:03:55.529Z,17.75
2022-12-22T19:06:23.372Z,20.88
2022-12-22T19:08:50.725Z,19.65
2022-12-22T19:11:24.465Z,17.85
2022-12-22T19:13:52.012Z,20.90
2022-12-22T19:16:23.846Z,19.02
2022-12-22T19:18:50.612Z,16.73
2022-12-22T19:21:18.551Z,18.17
2022-12-22T19:23:45.465Z,18.08
2022-12-22T19:26:21.518Z,19.45
2022-12-22T19:28:53.292Z,18.25
2022-12-22T19:31:26.313Z,20.73
2022-12-22T19:33:55.189Z,17.20
2022-12-22T19:36:27.726Z,18.08
2022-12-22T19:39:03.465Z,17.90
2022-12-22T19:41:39.897Z,19.10
2022-12-22T19:44:25.585Z,16.40
2022-12-22T19:46:53.695Z,18.58
2022-12-22T19:49:23.227Z,20.48
2022-12-22T19:51:50.525Z,19.23
2022-12-22T19:54:17.814Z,19.33
2022-12-22T19:56:48.416Z,19.05
2022-12-22T19:59:37.275Z,18.90
2022-12-22T20:02:20.428Z,19.50
2022-12-22T20:04:48.555Z,20.52
2022-12-22T20:07:19.821Z,20.15
2022-12-22T20:09:47.096Z,18.50
2022-12-22T20:12:30.275Z,20.92
2022-12-22T20:14:59.964Z,17.98
2022-12-22T20:17:26.595Z,20.75
2022-12-22T20:19:53.271Z,21.13
2022-12-22T20:22:22.079Z,20.70
2022-12-22T20:24:50.841Z,22.70
2022-12-22T20:27:28.991Z,18.25
2022-12-22T20:29:56.631Z,16.00
2022-12-22T20:32:28.056Z,18.60
2022-12-22T20:34:55.476Z,17.35
2022-12-22T20:37:22.234Z,19.15
2022-12-22T20:39:48.902Z,16.55
2022-12-22T20:42:19.829Z,15.80
2022-12-22T20:45:03.761Z,18.35
2022-12-22T20:47:32.229Z,17.27
2022-12-22T20:49:59.380Z,18.10
2022-12-22T20:52:26.773Z,16.02
2022-12-22T20:54:53.407Z,17.15
2022-12-22T20:57:21.478Z,18.38
2022-12-22T20:59:54.003Z,16.73
2022-12-22T21:02:26.926Z,16.73
2022-12-22T21:04:53.847Z,12.80
2022-12-22T21:07:20.400Z,18.20
2022-12-22T21:09:46.963Z,17.10
2022-12-22T21:12:13.555Z,18.75
2022-12-22T21:14:40.195Z,17.27
2022-12-22T21:17:15.550Z,14.73
2022-12-22T21:19:42.327Z,16.58
2022-12-22T21:22:08.967Z,18.90
2022-12-22T21:24:35.710Z,14.02
2022-12-22T21:27:02.438Z,15.93
2022-12-22T21:29:29.615Z,14.63
2022-12-22T21:31:56.187Z,14.95
2022-12-22T21:34:22.856Z,12.90
2022-12-22T21:36:57.784Z,16.40
2022-12-22T21:39:28.350Z,14.68
2022-12-22T21:42:01.066Z,13.65
2022-12-22T21:44:30.982Z,12.52
2022-12-22T21:46:58.272Z,13.25
2022-12-22T21:49:28.912Z,16.00
2022-12-22T21:51:57.973Z,13.18
2022-12-22T21:54:25.610Z,14.35
2022-12-22T21:56:53.445Z,13.35
2022-12-22T21:59:20.486Z,11.95
2022-12-22T22:01:47.438Z,13.82
2022-12-22T22:04:17.740Z,14.02
2022-12-22T22:06:44.537Z,12.15
2022-12-22T22:09:13.294Z,11.02
2022-12-22T22:11:59.360Z,11.88
2022-12-22T22:14:26.630Z,15.40
2022-12-22T22:16:53.699Z,12.10
2022-12-22T22:19:20.406Z,14.25
2022-12-22T22:21:47.114Z,14.02
2022-12-22T22:24:14.192Z,13.48
2022-12-22T22:26:40.878Z,13.38
2022-12-22T22:29:07.487Z,15.23
2022-12-22T22:31:34.124Z,17.15
2022-12-22T22:34:00.790Z,12.45
2022-12-22T22:36:27.486Z,14.45
2022-12-22T22:38:54.332Z,14.13
2022-12-22T22:41:20.963Z,14.15
2022-12-22T22:43:47.576Z,14.00
2022-12-22T22:46:14.449Z,13.25
2022-12-22T22:48:41.101Z,14.40
2022-12-22T22:51:10.403Z,14.55
2022-12-22T22:53:36.956Z,13.35
2022-12-22T22:56:03.819Z,15.15
2022-12-22T22:58:30.515Z,13.13
2022-12-22T23:01:04.864Z,13.43
2022-12-22T23:03:31.729Z,14.10
2022-12-22T23:06:06.886Z,15.30
2022-12-22T23:08:33.644Z,12.82
2022-12-22T23:11:01.678Z,14.75
2022-12-22T23:13:28.845Z,14.43
2022-12-22T23:15:56.441Z,13.93
2022-12-22T23:18:23.286Z,15.00
2022-12-22T23:20:49.938Z,12.60
2022-12-22T23:23:16.787Z,13.10
2022-12-22T23:25:44.967Z,15.25
2022-12-22T23:28:11.711Z,13.10
2022-12-22T23:30:39.812Z,13.90
2022-12-22T23:33:06.608Z,14.32
2022-12-22T23:35:36.468Z,15.18
2022-12-22T23:38:04.075Z,14.02
2022-12-22T23:40:51.609Z,12.73
2022-12-22T23:43:17.558Z,13.32
2022-12-22T23:45:44.200Z,12.77
2022-12-22T23:48:10.760Z,12.82
2022-12-22T23:50:37.392Z,12.13
2022-12-22T23:53:04.094Z,12.73
2022-12-22T23:55:30.857Z,11.60
2022-12-22T23:57:57.489Z,11.60
